sensor_id;sensor_type;location;lat;lon;timestamp;temperature;humidity
14411;DHT22;7290;50.854;4.354;2023-06-14T00:01:02;24.10;71.60
14411;DHT22;7290;50.854;4.354;2023-06-14T00:03:28;24.10;71.70
14411;DHT22;7290;50.854;4.354;2023-06-14T00:05:55;24.00;71.80
14411;DHT22;7290;50.854;4.354;2023-06-14T00:08:22;23.90;71.80
14411;DHT22;7290;50.854;4.354;2023-06-14T00:10:50;23.90;72.00
14411;DHT22;7290;50.854;4.354;2023-06-14T00:13:16;23.90;72.00
14411;DHT22;7290;50.854;4.354;2023-06-14T00:15:43;23.80;72.20
14411;DHT22;7290;50.854;4.354;2023-06-14T00:18:09;23.80;72.50
14411;DHT22;7290;50.854;4.354;2023-06-14T00:20:37;23.70;72.70
14411;DHT22;7290;50.854;4.354;2023-06-14T00:23:05;23.60;73.00
14411;DHT22;7290;50.854;4.354;2023-06-14T00:25:32;23.60;73.10
14411;DHT22;7290;50.854;4.354;2023-06-14T00:27:58;23.60;73.30
14411;DHT22;7290;50.854;4.354;2023-06-14T00:30:25;23.60;73.20
14411;DHT22;7290;50.854;4.354;2023-06-14T00:32:56;23.60;73.30
14411;DHT22;7290;50.854;4.354;2023-06-14T00:35:23;23.50;73.60
14411;DHT22;7290;50.854;4.354;2023-06-14T00:37:50;23.60;73.50
14411;DHT22;7290;50.854;4.354;2023-06-14T00:40:18;23.60;73.20
14411;DHT22;7290;50.854;4.354;2023-06-14T00:42:45;23.60;73.00
14411;DHT22;7290;50.854;4.354;2023-06-14T00:45:12;23.60;73.20
14411;DHT22;7290;50.854;4.354;2023-06-14T00:47:40;23.60;73.20
14411;DHT22;7290;50.854;4.354;2023-06-14T00:50:08;23.60;73.30
14411;DHT22;7290;50.854;4.354;2023-06-14T00:52:35;23.50;73.40
14411;DHT22;7290;50.854;4.354;2023-06-14T00:55:02;23.50;73.60
14411;DHT22;7290;50.854;4.354;2023-06-14T00:57:30;23.40;73.60
14411;DHT22;7290;50.854;4.354;2023-06-14T00:59:57;23.40;73.60
14411;DHT22;7290;50.854;4.354;2023-06-14T01:02:25;23.40;73.70
14411;DHT22;7290;50.854;4.354;2023-06-14T01:04:52;23.40;73.80
14411;DHT22;7290;50.854;4.354;2023-06-14T01:07:25;23.30;73.90
14411;DHT22;7290;50.854;4.354;2023-06-14T01:10:05;23.30;74.20
14411;DHT22;7290;50.854;4.354;2023-06-14T01:12:39;23.20;74.40
14411;DHT22;7290;50.854;4.354;2023-06-14T01:15:12;23.20;74.50
14411;DHT22;7290;50.854;4.354;2023-06-14T01:17:39;23.20;74.60
14411;DHT22;7290;50.854;4.354;2023-06-14T01:20:11;23.10;75.00
14411;DHT22;7290;50.854;4.354;2023-06-14T01:22:49;23.00;75.10
14411;DHT22;7290;50.854;4.354;2023-06-14T01:25:16;22.90;75.30
14411;DHT22;7290;50.854;4.354;2023-06-14T01:27:47;22.90;75.60
14411;DHT22;7290;50.854;4.354;2023-06-14T01:30:16;22.70;76.10
14411;DHT22;7290;50.854;4.354;2023-06-14T01:32:43;22.60;76.30
14411;DHT22;7290;50.854;4.354;2023-06-14T01:35:10;22.60;76.60
14411;DHT22;7290;50.854;4.354;2023-06-14T01:37:36;22.60;76.50
14411;DHT22;7290;50.854;4.354;2023-06-14T01:40:04;22.70;76.30
14411;DHT22;7290;50.854;4.354;2023-06-14T01:42:32;22.80;76.40
14411;DHT22;7290;50.854;4.354;2023-06-14T01:45:00;22.70;76.50
14411;DHT22;7290;50.854;4.354;2023-06-14T01:47:27;22.50;77.10
14411;DHT22;7290;50.854;4.354;2023-06-14T01:49:53;22.50;77.00
14411;DHT22;7290;50.854;4.354;2023-06-14T01:52:19;22.50;77.20
14411;DHT22;7290;50.854;4.354;2023-06-14T01:54:47;22.50;77.40
14411;DHT22;7290;50.854;4.354;2023-06-14T01:57:16;22.50;77.50
14411;DHT22;7290;50.854;4.354;2023-06-14T01:59:42;22.50;77.90
14411;DHT22;7290;50.854;4.354;2023-06-14T02:02:14;22.30;78.50
14411;DHT22;7290;50.854;4.354;2023-06-14T02:04:41;22.10;79.10
14411;DHT22;7290;50.854;4.354;2023-06-14T02:07:08;22.10;79.20
14411;DHT22;7290;50.854;4.354;2023-06-14T02:09:35;22.10;79.30
14411;DHT22;7290;50.854;4.354;2023-06-14T02:12:01;22.10;79.20
14411;DHT22;7290;50.854;4.354;2023-06-14T02:14:29;22.20;79.10
14411;DHT22;7290;50.854;4.354;2023-06-14T02:16:55;22.20;79.10
14411;DHT22;7290;50.854;4.354;2023-06-14T02:19:21;22.00;79.30
14411;DHT22;7290;50.854;4.354;2023-06-14T02:21:51;22.00;79.60
14411;DHT22;7290;50.854;4.354;2023-06-14T02:24:17;22.10;79.40
14411;DHT22;7290;50.854;4.354;2023-06-14T02:26:43;22.00;79.40
14411;DHT22;7290;50.854;4.354;2023-06-14T02:29:10;21.90;79.90
14411;DHT22;7290;50.854;4.354;2023-06-14T02:31:39;21.90;79.90
14411;DHT22;7290;50.854;4.354;2023-06-14T02:34:06;21.90;80.00
14411;DHT22;7290;50.854;4.354;2023-06-14T02:36:34;21.80;80.20
14411;DHT22;7290;50.854;4.354;2023-06-14T02:39:00;21.70;80.40
14411;DHT22;7290;50.854;4.354;2023-06-14T02:41:28;21.70;80.80
14411;DHT22;7290;50.854;4.354;2023-06-14T02:43:55;21.70;80.50
14411;DHT22;7290;50.854;4.354;2023-06-14T02:46:21;21.70;80.80
14411;DHT22;7290;50.854;4.354;2023-06-14T02:48:48;21.70;80.70
14411;DHT22;7290;50.854;4.354;2023-06-14T02:51:15;21.70;80.70
14411;DHT22;7290;50.854;4.354;2023-06-14T02:53:41;21.70;80.80
14411;DHT22;7290;50.854;4.354;2023-06-14T02:56:07;21.60;81.00
14411;DHT22;7290;50.854;4.354;2023-06-14T02:58:33;21.70;81.20
14411;DHT22;7290;50.854;4.354;2023-06-14T03:01:01;21.60;81.30
14411;DHT22;7290;50.854;4.354;2023-06-14T03:03:29;21.50;81.70
14411;DHT22;7290;50.854;4.354;2023-06-14T03:05:56;21.40;82.00
14411;DHT22;7290;50.854;4.354;2023-06-14T03:08:22;21.50;81.90
14411;DHT22;7290;50.854;4.354;2023-06-14T03:10:53;21.50;82.10
14411;DHT22;7290;50.854;4.354;2023-06-14T03:13:19;21.40;82.20
14411;DHT22;7290;50.854;4.354;2023-06-14T03:15:47;21.40;82.40
14411;DHT22;7290;50.854;4.354;2023-06-14T03:18:16;21.30;82.50
14411;DHT22;7290;50.854;4.354;2023-06-14T03:20:42;21.30;82.90
14411;DHT22;7290;50.854;4.354;2023-06-14T03:23:12;21.20;82.80
14411;DHT22;7290;50.854;4.354;2023-06-14T03:25:38;21.00;83.70
14411;DHT22;7290;50.854;4.354;2023-06-14T03:28:07;21.00;83.90
14411;DHT22;7290;50.854;4.354;2023-06-14T03:30:35;21.00;83.90
14411;DHT22;7290;50.854;4.354;2023-06-14T03:33:02;21.00;84.00
14411;DHT22;7290;50.854;4.354;2023-06-14T03:35:28;21.10;84.00
14411;DHT22;7290;50.854;4.354;2023-06-14T03:37:55;21.10;84.00
14411;DHT22;7290;50.854;4.354;2023-06-14T03:40:22;21.10;83.90
14411;DHT22;7290;50.854;4.354;2023-06-14T03:42:52;21.10;83.90
14411;DHT22;7290;50.854;4.354;2023-06-14T03:45:18;21.10;84.00
14411;DHT22;7290;50.854;4.354;2023-06-14T03:47:45;21.00;84.30
14411;DHT22;7290;50.854;4.354;2023-06-14T03:50:12;21.10;84.40
14411;DHT22;7290;50.854;4.354;2023-06-14T03:52:39;21.00;84.30
14411;DHT22;7290;50.854;4.354;2023-06-14T03:55:08;21.00;84.70
14411;DHT22;7290;50.854;4.354;2023-06-14T03:57:35;21.10;84.70
14411;DHT22;7290;50.854;4.354;2023-06-14T04:00:02;21.00;84.20
14411;DHT22;7290;50.854;4.354;2023-06-14T04:02:31;21.10;84.50
14411;DHT22;7290;50.854;4.354;2023-06-14T04:04:57;21.00;84.50
14411;DHT22;7290;50.854;4.354;2023-06-14T04:07:25;21.10;84.80
14411;DHT22;7290;50.854;4.354;2023-06-14T04:09:54;21.10;84.60
14411;DHT22;7290;50.854;4.354;2023-06-14T04:12:20;21.20;84.50
14411;DHT22;7290;50.854;4.354;2023-06-14T04:14:47;21.00;84.80
14411;DHT22;7290;50.854;4.354;2023-06-14T04:17:14;21.10;84.90
14411;DHT22;7290;50.854;4.354;2023-06-14T04:19:40;21.10;84.80
14411;DHT22;7290;50.854;4.354;2023-06-14T04:22:06;21.30;84.60
14411;DHT22;7290;50.854;4.354;2023-06-14T04:24:32;21.20;84.70
14411;DHT22;7290;50.854;4.354;2023-06-14T04:27:00;21.20;84.80
14411;DHT22;7290;50.854;4.354;2023-06-14T04:29:27;21.30;84.40
14411;DHT22;7290;50.854;4.354;2023-06-14T04:31:56;21.40;84.30
14411;DHT22;7290;50.854;4.354;2023-06-14T04:34:24;21.20;84.40
14411;DHT22;7290;50.854;4.354;2023-06-14T04:36:55;21.30;84.30
14411;DHT22;7290;50.854;4.354;2023-06-14T04:39:22;21.50;84.20
14411;DHT22;7290;50.854;4.354;2023-06-14T04:41:48;21.50;83.60
14411;DHT22;7290;50.854;4.354;2023-06-14T04:44:18;21.20;83.80
14411;DHT22;7290;50.854;4.354;2023-06-14T04:46:45;21.20;84.40
14411;DHT22;7290;50.854;4.354;2023-06-14T04:49:12;21.30;84.60
14411;DHT22;7290;50.854;4.354;2023-06-14T04:51:41;21.50;84.10
14411;DHT22;7290;50.854;4.354;2023-06-14T04:54:08;22.40;82.40
14411;DHT22;7290;50.854;4.354;2023-06-14T04:56:35;23.40;79.50
14411;DHT22;7290;50.854;4.354;2023-06-14T04:59:03;24.50;76.40
14411;DHT22;7290;50.854;4.354;2023-06-14T05:01:32;25.30;74.50
14411;DHT22;7290;50.854;4.354;2023-06-14T05:03:59;26.20;71.70
14411;DHT22;7290;50.854;4.354;2023-06-14T05:06:26;26.10;71.00
14411;DHT22;7290;50.854;4.354;2023-06-14T05:08:53;26.60;70.40
14411;DHT22;7290;50.854;4.354;2023-06-14T05:11:19;26.90;69.40
14411;DHT22;7290;50.854;4.354;2023-06-14T05:13:45;27.30;68.30
14411;DHT22;7290;50.854;4.354;2023-06-14T05:16:12;27.90;67.50
14411;DHT22;7290;50.854;4.354;2023-06-14T05:18:38;28.40;66.20
14411;DHT22;7290;50.854;4.354;2023-06-14T05:21:06;28.40;65.60
14411;DHT22;7290;50.854;4.354;2023-06-14T05:23:34;27.60;65.70
14411;DHT22;7290;50.854;4.354;2023-06-14T05:26:01;27.80;67.10
14411;DHT22;7290;50.854;4.354;2023-06-14T05:28:29;27.40;66.90
14411;DHT22;7290;50.854;4.354;2023-06-14T05:30:56;27.50;67.40
14411;DHT22;7290;50.854;4.354;2023-06-14T05:33:23;27.40;67.70
14411;DHT22;7290;50.854;4.354;2023-06-14T05:35:50;27.10;67.80
14411;DHT22;7290;50.854;4.354;2023-06-14T05:38:16;27.30;67.30
14411;DHT22;7290;50.854;4.354;2023-06-14T05:40:43;28.20;66.30
14411;DHT22;7290;50.854;4.354;2023-06-14T05:43:10;28.00;65.40
14411;DHT22;7290;50.854;4.354;2023-06-14T05:45:37;28.80;65.10
14411;DHT22;7290;50.854;4.354;2023-06-14T05:48:04;29.40;63.50
14411;DHT22;7290;50.854;4.354;2023-06-14T05:50:33;29.30;63.40
14411;DHT22;7290;50.854;4.354;2023-06-14T05:53:02;29.80;62.40
14411;DHT22;7290;50.854;4.354;2023-06-14T05:55:29;29.80;62.50
14411;DHT22;7290;50.854;4.354;2023-06-14T05:57:56;29.90;62.30
14411;DHT22;7290;50.854;4.354;2023-06-14T06:00:22;29.70;62.50
14411;DHT22;7290;50.854;4.354;2023-06-14T06:02:49;30.40;61.60
14411;DHT22;7290;50.854;4.354;2023-06-14T06:05:16;30.90;60.90
14411;DHT22;7290;50.854;4.354;2023-06-14T06:07:42;30.50;60.70
14411;DHT22;7290;50.854;4.354;2023-06-14T06:10:10;30.90;60.40
14411;DHT22;7290;50.854;4.354;2023-06-14T06:12:36;31.20;60.00
14411;DHT22;7290;50.854;4.354;2023-06-14T06:15:04;32.00;59.80
14411;DHT22;7290;50.854;4.354;2023-06-14T06:17:31;32.10;58.90
14411;DHT22;7290;50.854;4.354;2023-06-14T06:19:59;32.30;58.60
14411;DHT22;7290;50.854;4.354;2023-06-14T06:22:26;32.30;57.80
14411;DHT22;7290;50.854;4.354;2023-06-14T06:24:53;31.80;58.90
14411;DHT22;7290;50.854;4.354;2023-06-14T06:27:19;32.00;58.80
14411;DHT22;7290;50.854;4.354;2023-06-14T06:29:46;32.20;58.60
14411;DHT22;7290;50.854;4.354;2023-06-14T06:32:15;32.40;57.90
14411;DHT22;7290;50.854;4.354;2023-06-14T06:34:41;32.20;58.10
14411;DHT22;7290;50.854;4.354;2023-06-14T06:37:09;31.10;60.00
14411;DHT22;7290;50.854;4.354;2023-06-14T06:39:36;31.60;59.20
14411;DHT22;7290;50.854;4.354;2023-06-14T06:42:03;32.00;59.00
14411;DHT22;7290;50.854;4.354;2023-06-14T06:44:29;32.10;58.20
14411;DHT22;7290;50.854;4.354;2023-06-14T06:46:55;31.40;59.20
14411;DHT22;7290;50.854;4.354;2023-06-14T06:49:23;32.00;58.90
14411;DHT22;7290;50.854;4.354;2023-06-14T06:52:00;32.50;57.90
14411;DHT22;7290;50.854;4.354;2023-06-14T06:54:27;33.30;57.20
14411;DHT22;7290;50.854;4.354;2023-06-14T06:56:54;33.60;56.40
14411;DHT22;7290;50.854;4.354;2023-06-14T06:59:21;33.90;56.00
14411;DHT22;7290;50.854;4.354;2023-06-14T07:01:47;33.90;56.00
14411;DHT22;7290;50.854;4.354;2023-06-14T07:04:14;33.60;56.00
14411;DHT22;7290;50.854;4.354;2023-06-14T07:06:42;34.20;55.60
14411;DHT22;7290;50.854;4.354;2023-06-14T07:09:09;34.00;55.00
14411;DHT22;7290;50.854;4.354;2023-06-14T07:11:38;33.30;56.10
14411;DHT22;7290;50.854;4.354;2023-06-14T07:14:05;33.00;56.80
14411;DHT22;7290;50.854;4.354;2023-06-14T07:16:32;33.70;56.50
14411;DHT22;7290;50.854;4.354;2023-06-14T07:18:58;34.50;55.70
14411;DHT22;7290;50.854;4.354;2023-06-14T07:21:25;34.50;55.00
14411;DHT22;7290;50.854;4.354;2023-06-14T07:23:53;34.60;55.20
14411;DHT22;7290;50.854;4.354;2023-06-14T07:26:20;34.90;54.70
14411;DHT22;7290;50.854;4.354;2023-06-14T07:28:46;35.00;54.20
14411;DHT22;7290;50.854;4.354;2023-06-14T07:31:13;35.50;54.30
14411;DHT22;7290;50.854;4.354;2023-06-14T07:33:40;35.70;53.10
14411;DHT22;7290;50.854;4.354;2023-06-14T07:36:07;35.10;53.80
14411;DHT22;7290;50.854;4.354;2023-06-14T07:38:34;35.70;53.60
14411;DHT22;7290;50.854;4.354;2023-06-14T07:41:01;36.30;53.20
14411;DHT22;7290;50.854;4.354;2023-06-14T07:43:27;36.30;53.30
14411;DHT22;7290;50.854;4.354;2023-06-14T07:45:54;36.20;53.20
14411;DHT22;7290;50.854;4.354;2023-06-14T07:48:21;36.40;53.10
14411;DHT22;7290;50.854;4.354;2023-06-14T07:50:47;37.00;52.60
14411;DHT22;7290;50.854;4.354;2023-06-14T07:53:14;38.20;51.50
14411;DHT22;7290;50.854;4.354;2023-06-14T07:55:41;38.10;50.80
14411;DHT22;7290;50.854;4.354;2023-06-14T07:58:09;37.40;51.60
14411;DHT22;7290;50.854;4.354;2023-06-14T08:00:36;37.30;51.10
14411;DHT22;7290;50.854;4.354;2023-06-14T08:03:03;37.60;50.80
14411;DHT22;7290;50.854;4.354;2023-06-14T08:05:29;36.50;51.70
14411;DHT22;7290;50.854;4.354;2023-06-14T08:07:56;36.40;52.20
14411;DHT22;7290;50.854;4.354;2023-06-14T08:10:22;37.30;51.50
14411;DHT22;7290;50.854;4.354;2023-06-14T08:12:49;37.90;50.80
14411;DHT22;7290;50.854;4.354;2023-06-14T08:15:24;37.10;49.20
14411;DHT22;7290;50.854;4.354;2023-06-14T08:17:51;36.70;51.10
14411;DHT22;7290;50.854;4.354;2023-06-14T08:20:18;37.60;50.80
14411;DHT22;7290;50.854;4.354;2023-06-14T08:22:44;38.30;50.00
14411;DHT22;7290;50.854;4.354;2023-06-14T08:25:12;38.30;50.30
14411;DHT22;7290;50.854;4.354;2023-06-14T08:27:39;37.90;50.90
14411;DHT22;7290;50.854;4.354;2023-06-14T08:30:06;37.50;50.40
14411;DHT22;7290;50.854;4.354;2023-06-14T08:32:35;37.50;51.00
14411;DHT22;7290;50.854;4.354;2023-06-14T08:35:01;37.20;51.60
14411;DHT22;7290;50.854;4.354;2023-06-14T08:37:28;37.90;50.50
14411;DHT22;7290;50.854;4.354;2023-06-14T08:39:55;38.00;50.70
14411;DHT22;7290;50.854;4.354;2023-06-14T08:42:24;37.70;50.80
14411;DHT22;7290;50.854;4.354;2023-06-14T08:44:50;37.60;49.60
14411;DHT22;7290;50.854;4.354;2023-06-14T08:47:19;38.00;50.50
14411;DHT22;7290;50.854;4.354;2023-06-14T08:49:48;37.80;51.00
14411;DHT22;7290;50.854;4.354;2023-06-14T08:52:16;37.20;51.60
14411;DHT22;7290;50.854;4.354;2023-06-14T08:54:44;36.70;51.80
14411;DHT22;7290;50.854;4.354;2023-06-14T08:57:14;37.00;51.90
14411;DHT22;7290;50.854;4.354;2023-06-14T08:59:46;36.80;52.20
14411;DHT22;7290;50.854;4.354;2023-06-14T09:02:15;36.60;52.30
14411;DHT22;7290;50.854;4.354;2023-06-14T09:04:43;36.70;52.10
14411;DHT22;7290;50.854;4.354;2023-06-14T09:07:10;37.40;51.60
14411;DHT22;7290;50.854;4.354;2023-06-14T09:09:39;37.50;51.10
14411;DHT22;7290;50.854;4.354;2023-06-14T09:12:08;36.80;52.30
14411;DHT22;7290;50.854;4.354;2023-06-14T09:14:36;36.50;53.40
14411;DHT22;7290;50.854;4.354;2023-06-14T09:17:06;37.60;52.10
14411;DHT22;7290;50.854;4.354;2023-06-14T09:19:33;36.90;52.40
14411;DHT22;7290;50.854;4.354;2023-06-14T09:22:01;36.80;52.70
14411;DHT22;7290;50.854;4.354;2023-06-14T09:24:29;36.60;53.20
14411;DHT22;7290;50.854;4.354;2023-06-14T09:26:57;36.80;53.00
14411;DHT22;7290;50.854;4.354;2023-06-14T09:29:23;37.70;51.90
14411;DHT22;7290;50.854;4.354;2023-06-14T09:31:50;38.20;51.40
14411;DHT22;7290;50.854;4.354;2023-06-14T09:34:18;38.30;51.30
14411;DHT22;7290;50.854;4.354;2023-06-14T09:36:49;38.10;51.00
14411;DHT22;7290;50.854;4.354;2023-06-14T09:39:17;37.50;52.00
14411;DHT22;7290;50.854;4.354;2023-06-14T09:41:44;37.60;51.60
14411;DHT22;7290;50.854;4.354;2023-06-14T09:44:13;37.70;51.50
14411;DHT22;7290;50.854;4.354;2023-06-14T09:46:40;38.20;50.70
14411;DHT22;7290;50.854;4.354;2023-06-14T09:49:08;37.10;50.80
14411;DHT22;7290;50.854;4.354;2023-06-14T09:51:37;35.10;53.30
14411;DHT22;7290;50.854;4.354;2023-06-14T09:54:14;35.40;53.30
14411;DHT22;7290;50.854;4.354;2023-06-14T09:56:41;36.40;52.20
14411;DHT22;7290;50.854;4.354;2023-06-14T09:59:12;37.10;51.20
14411;DHT22;7290;50.854;4.354;2023-06-14T10:01:42;37.70;50.40
14411;DHT22;7290;50.854;4.354;2023-06-14T10:04:09;37.20;50.20
14411;DHT22;7290;50.854;4.354;2023-06-14T10:06:40;38.10;50.20
14411;DHT22;7290;50.854;4.354;2023-06-14T10:09:08;36.80;50.00
14411;DHT22;7290;50.854;4.354;2023-06-14T10:11:36;37.00;51.10
14411;DHT22;7290;50.854;4.354;2023-06-14T10:14:05;37.00;50.10
14411;DHT22;7290;50.854;4.354;2023-06-14T10:16:38;37.40;49.00
14411;DHT22;7290;50.854;4.354;2023-06-14T10:19:11;38.30;47.70
14411;DHT22;7290;50.854;4.354;2023-06-14T10:21:45;39.20;46.90
14411;DHT22;7290;50.854;4.354;2023-06-14T10:24:17;39.20;46.80
14411;DHT22;7290;50.854;4.354;2023-06-14T10:26:55;39.20;47.10
14411;DHT22;7290;50.854;4.354;2023-06-14T10:29:23;39.30;46.70
14411;DHT22;7290;50.854;4.354;2023-06-14T10:31:58;36.30;47.50
14411;DHT22;7290;50.854;4.354;2023-06-14T10:34:26;34.10;51.40
14411;DHT22;7290;50.854;4.354;2023-06-14T10:37:03;34.70;50.40
14411;DHT22;7290;50.854;4.354;2023-06-14T10:39:30;34.50;50.20
14411;DHT22;7290;50.854;4.354;2023-06-14T10:41:58;34.60;50.80
14411;DHT22;7290;50.854;4.354;2023-06-14T10:44:51;36.10;49.40
14411;DHT22;7290;50.854;4.354;2023-06-14T10:47:24;37.30;47.60
14411;DHT22;7290;50.854;4.354;2023-06-14T10:49:52;35.30;49.40
14411;DHT22;7290;50.854;4.354;2023-06-14T10:52:22;35.60;48.90
14411;DHT22;7290;50.854;4.354;2023-06-14T10:55:08;34.30;49.20
14411;DHT22;7290;50.854;4.354;2023-06-14T10:57:41;33.60;52.00
14411;DHT22;7290;50.854;4.354;2023-06-14T11:00:09;33.60;52.60
14411;DHT22;7290;50.854;4.354;2023-06-14T11:06:13;34.20;50.70
14411;DHT22;7290;50.854;4.354;2023-06-14T11:08:57;36.00;48.30
14411;DHT22;7290;50.854;4.354;2023-06-14T11:11:32;35.60;49.10
14411;DHT22;7290;50.854;4.354;2023-06-14T11:14:00;36.20;48.60
14411;DHT22;7290;50.854;4.354;2023-06-14T11:16:27;35.10;49.40
14411;DHT22;7290;50.854;4.354;2023-06-14T11:18:53;35.50;48.90
14411;DHT22;7290;50.854;4.354;2023-06-14T11:21:25;36.20;48.40
14411;DHT22;7290;50.854;4.354;2023-06-14T11:23:57;37.00;47.80
14411;DHT22;7290;50.854;4.354;2023-06-14T11:26:27;37.80;47.20
14411;DHT22;7290;50.854;4.354;2023-06-14T11:28:55;37.00;47.10
14411;DHT22;7290;50.854;4.354;2023-06-14T11:31:23;36.80;46.80
14411;DHT22;7290;50.854;4.354;2023-06-14T11:33:50;36.70;47.20
14411;DHT22;7290;50.854;4.354;2023-06-14T11:36:17;36.40;48.30
14411;DHT22;7290;50.854;4.354;2023-06-14T11:38:45;36.40;48.10
14411;DHT22;7290;50.854;4.354;2023-06-14T11:41:12;35.20;48.80
14411;DHT22;7290;50.854;4.354;2023-06-14T11:43:41;35.60;49.00
14411;DHT22;7290;50.854;4.354;2023-06-14T11:46:12;36.00;48.40
14411;DHT22;7290;50.854;4.354;2023-06-14T11:48:42;36.70;47.80
14411;DHT22;7290;50.854;4.354;2023-06-14T11:51:09;37.10;46.90
14411;DHT22;7290;50.854;4.354;2023-06-14T11:53:37;37.60;46.50
14411;DHT22;7290;50.854;4.354;2023-06-14T11:56:05;37.40;46.70
14411;DHT22;7290;50.854;4.354;2023-06-14T11:58:32;36.60;47.40
14411;DHT22;7290;50.854;4.354;2023-06-14T12:00:58;37.00;47.50
14411;DHT22;7290;50.854;4.354;2023-06-14T12:03:25;36.20;47.60
14411;DHT22;7290;50.854;4.354;2023-06-14T12:06:03;36.00;48.30
14411;DHT22;7290;50.854;4.354;2023-06-14T12:08:33;36.10;48.20
14411;DHT22;7290;50.854;4.354;2023-06-14T12:11:06;36.70;47.40
14411;DHT22;7290;50.854;4.354;2023-06-14T12:13:34;36.90;47.20
14411;DHT22;7290;50.854;4.354;2023-06-14T12:16:04;37.20;46.20
14411;DHT22;7290;50.854;4.354;2023-06-14T12:18:35;37.10;46.20
14411;DHT22;7290;50.854;4.354;2023-06-14T12:21:02;36.60;46.70
14411;DHT22;7290;50.854;4.354;2023-06-14T12:23:42;34.80;48.50
14411;DHT22;7290;50.854;4.354;2023-06-14T12:26:09;33.70;49.20
14411;DHT22;7290;50.854;4.354;2023-06-14T12:28:40;32.90;50.60
14411;DHT22;7290;50.854;4.354;2023-06-14T12:31:07;32.20;51.00
14411;DHT22;7290;50.854;4.354;2023-06-14T12:33:34;30.90;53.10
14411;DHT22;7290;50.854;4.354;2023-06-14T12:36:02;29.80;53.70
14411;DHT22;7290;50.854;4.354;2023-06-14T12:38:28;30.10;54.20
14411;DHT22;7290;50.854;4.354;2023-06-14T12:40:55;30.30;53.80
14411;DHT22;7290;50.854;4.354;2023-06-14T12:43:24;30.50;53.70
14411;DHT22;7290;50.854;4.354;2023-06-14T12:45:50;31.00;53.30
14411;DHT22;7290;50.854;4.354;2023-06-14T12:48:17;30.90;52.70
14411;DHT22;7290;50.854;4.354;2023-06-14T12:50:43;30.80;53.20
14411;DHT22;7290;50.854;4.354;2023-06-14T12:53:11;30.90;53.20
14411;DHT22;7290;50.854;4.354;2023-06-14T12:55:38;31.10;53.30
14411;DHT22;7290;50.854;4.354;2023-06-14T12:58:04;31.30;52.70
14411;DHT22;7290;50.854;4.354;2023-06-14T13:00:31;31.40;52.80
14411;DHT22;7290;50.854;4.354;2023-06-14T13:02:58;30.30;53.30
14411;DHT22;7290;50.854;4.354;2023-06-14T13:05:25;29.90;54.20
14411;DHT22;7290;50.854;4.354;2023-06-14T13:07:51;29.90;53.90
14411;DHT22;7290;50.854;4.354;2023-06-14T13:10:18;30.10;54.10
14411;DHT22;7290;50.854;4.354;2023-06-14T13:12:46;30.40;53.70
14411;DHT22;7290;50.854;4.354;2023-06-14T13:15:12;30.70;52.30
14411;DHT22;7290;50.854;4.354;2023-06-14T13:17:39;30.70;52.30
14411;DHT22;7290;50.854;4.354;2023-06-14T13:20:06;30.60;52.40
14411;DHT22;7290;50.854;4.354;2023-06-14T13:22:33;30.70;52.80
14411;DHT22;7290;50.854;4.354;2023-06-14T13:24:59;30.50;53.10
14411;DHT22;7290;50.854;4.354;2023-06-14T13:27:26;30.10;54.20
14411;DHT22;7290;50.854;4.354;2023-06-14T13:29:53;30.40;54.10
14411;DHT22;7290;50.854;4.354;2023-06-14T13:32:21;30.70;54.30
14411;DHT22;7290;50.854;4.354;2023-06-14T13:34:48;30.60;54.00
14411;DHT22;7290;50.854;4.354;2023-06-14T13:37:14;30.10;54.20
14411;DHT22;7290;50.854;4.354;2023-06-14T13:39:41;30.00;54.10
14411;DHT22;7290;50.854;4.354;2023-06-14T13:42:08;30.00;53.90
14411;DHT22;7290;50.854;4.354;2023-06-14T13:44:34;30.20;53.50
14411;DHT22;7290;50.854;4.354;2023-06-14T13:47:00;30.50;53.00
14411;DHT22;7290;50.854;4.354;2023-06-14T13:49:26;30.50;51.70
14411;DHT22;7290;50.854;4.354;2023-06-14T13:51:54;30.60;51.70
14411;DHT22;7290;50.854;4.354;2023-06-14T13:54:20;30.60;51.60
14411;DHT22;7290;50.854;4.354;2023-06-14T13:56:47;30.10;52.00
14411;DHT22;7290;50.854;4.354;2023-06-14T13:59:15;30.20;52.40
14411;DHT22;7290;50.854;4.354;2023-06-14T14:01:41;30.60;52.20
14411;DHT22;7290;50.854;4.354;2023-06-14T14:04:12;30.50;52.00
14411;DHT22;7290;50.854;4.354;2023-06-14T14:06:39;30.60;51.90
14411;DHT22;7290;50.854;4.354;2023-06-14T14:09:07;30.70;51.60
14411;DHT22;7290;50.854;4.354;2023-06-14T14:11:35;30.30;52.30
14411;DHT22;7290;50.854;4.354;2023-06-14T14:14:01;30.30;52.50
14411;DHT22;7290;50.854;4.354;2023-06-14T14:16:27;30.30;51.90
14411;DHT22;7290;50.854;4.354;2023-06-14T14:18:54;30.50;51.90
14411;DHT22;7290;50.854;4.354;2023-06-14T14:21:20;30.30;51.80
14411;DHT22;7290;50.854;4.354;2023-06-14T14:23:46;30.10;52.00
14411;DHT22;7290;50.854;4.354;2023-06-14T14:26:13;30.00;52.40
14411;DHT22;7290;50.854;4.354;2023-06-14T14:28:41;30.10;52.00
14411;DHT22;7290;50.854;4.354;2023-06-14T14:31:09;30.10;51.70
14411;DHT22;7290;50.854;4.354;2023-06-14T14:33:35;30.30;51.80
14411;DHT22;7290;50.854;4.354;2023-06-14T14:36:01;30.30;51.60
14411;DHT22;7290;50.854;4.354;2023-06-14T14:38:30;30.30;51.20
14411;DHT22;7290;50.854;4.354;2023-06-14T14:40:59;30.10;51.50
14411;DHT22;7290;50.854;4.354;2023-06-14T14:43:26;29.90;52.20
14411;DHT22;7290;50.854;4.354;2023-06-14T14:45:52;30.00;51.90
14411;DHT22;7290;50.854;4.354;2023-06-14T14:48:19;30.20;51.50
14411;DHT22;7290;50.854;4.354;2023-06-14T14:50:46;30.30;51.20
14411;DHT22;7290;50.854;4.354;2023-06-14T14:53:13;30.50;51.10
14411;DHT22;7290;50.854;4.354;2023-06-14T14:55:43;30.10;50.80
14411;DHT22;7290;50.854;4.354;2023-06-14T14:58:09;29.70;51.30
14411;DHT22;7290;50.854;4.354;2023-06-14T15:00:36;29.40;51.90
14411;DHT22;7290;50.854;4.354;2023-06-14T15:03:02;29.60;51.50
14411;DHT22;7290;50.854;4.354;2023-06-14T15:05:29;29.70;51.80
14411;DHT22;7290;50.854;4.354;2023-06-14T15:07:58;29.50;51.90
14411;DHT22;7290;50.854;4.354;2023-06-14T15:10:24;29.90;51.10
14411;DHT22;7290;50.854;4.354;2023-06-14T15:12:50;30.20;50.80
14411;DHT22;7290;50.854;4.354;2023-06-14T15:15:17;30.50;50.60
14411;DHT22;7290;50.854;4.354;2023-06-14T15:17:44;30.50;50.40
14411;DHT22;7290;50.854;4.354;2023-06-14T15:20:12;30.60;50.10
14411;DHT22;7290;50.854;4.354;2023-06-14T15:22:40;31.00;49.60
14411;DHT22;7290;50.854;4.354;2023-06-14T15:25:08;30.90;49.40
14411;DHT22;7290;50.854;4.354;2023-06-14T15:27:34;30.50;49.80
14411;DHT22;7290;50.854;4.354;2023-06-14T15:30:01;30.40;50.90
14411;DHT22;7290;50.854;4.354;2023-06-14T15:32:28;30.20;51.50
14411;DHT22;7290;50.854;4.354;2023-06-14T15:34:56;30.00;51.20
14411;DHT22;7290;50.854;4.354;2023-06-14T15:37:22;30.20;51.20
14411;DHT22;7290;50.854;4.354;2023-06-14T15:39:48;30.10;51.70
14411;DHT22;7290;50.854;4.354;2023-06-14T15:42:15;29.90;52.20
14411;DHT22;7290;50.854;4.354;2023-06-14T15:44:41;30.00;51.90
14411;DHT22;7290;50.854;4.354;2023-06-14T15:47:08;30.30;52.00
14411;DHT22;7290;50.854;4.354;2023-06-14T15:49:34;30.60;51.50
14411;DHT22;7290;50.854;4.354;2023-06-14T15:52:02;30.80;51.60